sensor_id;sensor_type;location;lat;lon;timestamp;pressure;altitude;pressure_sealevel;temperature;humidity
68141;BME280;54941;52.220;104.306;2022-07-24T00:00:44;95145.56;;;24.54;53.39
68141;BME280;54941;52.220;104.306;2022-07-24T00:03:10;95150.81;;;24.42;52.79
68141;BME280;54941;52.220;104.306;2022-07-24T00:05:37;95152.78;;;23.19;56.98
68141;BME280;54941;52.220;104.306;2022-07-24T00:08:03;95150.84;;;22.56;59.05
68141;BME280;54941;52.220;104.306;2022-07-24T00:10:29;95154.47;;;21.87;61.99
68141;BME280;54941;52.220;104.306;2022-07-24T00:12:55;95157.94;;;21.56;63.60
68141;BME280;54941;52.220;104.306;2022-07-24T00:15:21;95156.72;;;22.53;60.82
68141;BME280;54941;52.220;104.306;2022-07-24T00:17:48;95147.69;;;23.23;58.99
68141;BME280;54941;52.220;104.306;2022-07-24T00:20:14;95150.16;;;24.45;55.08
68141;BME280;54941;52.220;104.306;2022-07-24T00:22:41;95152.13;;;24.90;53.16
68141;BME280;54941;52.220;104.306;2022-07-24T00:25:07;95161.69;;;24.73;53.85
68141;BME280;54941;52.220;104.306;2022-07-24T00:27:34;95169.13;;;24.39;53.08
68141;BME280;54941;52.220;104.306;2022-07-24T00:30:00;95159.44;;;23.72;55.43
68141;BME280;54941;52.220;104.306;2022-07-24T00:32:26;95168.03;;;22.79;59.26
68141;BME280;54941;52.220;104.306;2022-07-24T00:34:52;95161.25;;;23.25;57.32
68141;BME280;54941;52.220;104.306;2022-07-24T00:37:18;95168.06;;;23.26;57.34
68141;BME280;54941;52.220;104.306;2022-07-24T00:39:44;95174.06;;;23.82;55.60
68141;BME280;54941;52.220;104.306;2022-07-24T00:42:11;95168.78;;;22.97;58.59
68141;BME280;54941;52.220;104.306;2022-07-24T00:44:37;95169.09;;;23.51;56.92
68141;BME280;54941;52.220;104.306;2022-07-24T00:47:03;95170.41;;;23.27;57.62
68141;BME280;54941;52.220;104.306;2022-07-24T00:49:29;95170.94;;;23.88;55.75
68141;BME280;54941;52.220;104.306;2022-07-24T00:51:55;95174.28;;;23.21;57.69
68141;BME280;54941;52.220;104.306;2022-07-24T00:54:22;95172.81;;;22.69;58.74
68141;BME280;54941;52.220;104.306;2022-07-24T00:56:51;95174.03;;;22.80;58.98
68141;BME280;54941;52.220;104.306;2022-07-24T00:59:18;95176.22;;;23.50;57.02
68141;BME280;54941;52.220;104.306;2022-07-24T01:01:45;95177.63;;;23.86;56.21
68141;BME280;54941;52.220;104.306;2022-07-24T01:04:12;95174.66;;;22.94;57.51
68141;BME280;54941;52.220;104.306;2022-07-24T01:06:44;95181.75;;;21.77;61.64
68141;BME280;54941;52.220;104.306;2022-07-24T01:09:11;95180.59;;;21.21;63.93
68141;BME280;54941;52.220;104.306;2022-07-24T01:11:42;95173.28;;;20.65;65.47
68141;BME280;54941;52.220;104.306;2022-07-24T01:14:09;95167.84;;;21.06;64.95
68141;BME280;54941;52.220;104.306;2022-07-24T01:16:36;95172.31;;;21.28;64.48
68141;BME280;54941;52.220;104.306;2022-07-24T01:19:03;95176.03;;;22.31;61.19
68141;BME280;54941;52.220;104.306;2022-07-24T01:21:30;95173.44;;;23.47;58.11
68141;BME280;54941;52.220;104.306;2022-07-24T01:23:56;95175.91;;;24.40;56.24
68141;BME280;54941;52.220;104.306;2022-07-24T01:26:22;95178.75;;;24.35;54.25
68141;BME280;54941;52.220;104.306;2022-07-24T01:28:48;95180.78;;;24.70;53.44
68141;BME280;54941;52.220;104.306;2022-07-24T01:31:14;95189.16;;;23.09;57.67
68141;BME280;54941;52.220;104.306;2022-07-24T01:33:41;95183.75;;;22.19;60.21
68141;BME280;54941;52.220;104.306;2022-07-24T01:36:07;95192.41;;;22.46;60.37
68141;BME280;54941;52.220;104.306;2022-07-24T01:38:33;95187.63;;;22.30;60.33
68141;BME280;54941;52.220;104.306;2022-07-24T01:41:00;95185.31;;;22.63;60.07
68141;BME280;54941;52.220;104.306;2022-07-24T01:43:26;95188.84;;;22.59;59.67
68141;BME280;54941;52.220;104.306;2022-07-24T01:45:52;95187.41;;;23.21;57.82
68141;BME280;54941;52.220;104.306;2022-07-24T01:48:18;95187.28;;;22.23;60.33
68141;BME280;54941;52.220;104.306;2022-07-24T01:50:44;95186.06;;;22.29;61.06
68141;BME280;54941;52.220;104.306;2022-07-24T01:53:11;95192.59;;;22.75;60.74
68141;BME280;54941;52.220;104.306;2022-07-24T01:55:37;95180.06;;;22.80;60.17
68141;BME280;54941;52.220;104.306;2022-07-24T01:58:03;95181.56;;;23.16;58.74
68141;BME280;54941;52.220;104.306;2022-07-24T02:00:29;95182.38;;;22.82;59.55
68141;BME280;54941;52.220;104.306;2022-07-24T02:02:55;95187.50;;;22.61;59.70
68141;BME280;54941;52.220;104.306;2022-07-24T02:05:21;95187.97;;;22.72;59.83
68141;BME280;54941;52.220;104.306;2022-07-24T02:07:55;95196.53;;;22.12;62.24
68141;BME280;54941;52.220;104.306;2022-07-24T02:10:22;95196.38;;;21.30;64.51
68141;BME280;54941;52.220;104.306;2022-07-24T02:12:48;95194.72;;;21.12;65.58
68141;BME280;54941;52.220;104.306;2022-07-24T02:15:14;95197.69;;;21.19;65.23
68141;BME280;54941;52.220;104.306;2022-07-24T02:17:45;95199.59;;;21.05;65.80
68141;BME280;54941;52.220;104.306;2022-07-24T02:20:12;95194.44;;;21.44;64.78
68141;BME280;54941;52.220;104.306;2022-07-24T02:22:38;95194.13;;;21.46;64.52
68141;BME280;54941;52.220;104.306;2022-07-24T02:25:05;95201.19;;;21.36;64.01
68141;BME280;54941;52.220;104.306;2022-07-24T02:27:33;95198.50;;;21.59;63.95
68141;BME280;54941;52.220;104.306;2022-07-24T02:29:59;95195.69;;;21.47;64.58
68141;BME280;54941;52.220;104.306;2022-07-24T02:32:25;95203.38;;;21.12;65.32
68141;BME280;54941;52.220;104.306;2022-07-24T02:34:51;95199.81;;;20.36;68.09
68141;BME280;54941;52.220;104.306;2022-07-24T02:37:17;95196.22;;;20.46;68.93
68141;BME280;54941;52.220;104.306;2022-07-24T02:39:44;95196.25;;;20.32;68.94
68141;BME280;54941;52.220;104.306;2022-07-24T02:42:10;95203.75;;;21.06;67.38
68141;BME280;54941;52.220;104.306;2022-07-24T02:44:36;95208.38;;;21.62;65.43
68141;BME280;54941;52.220;104.306;2022-07-24T02:47:02;95207.34;;;22.11;61.19
68141;BME280;54941;52.220;104.306;2022-07-24T02:49:28;95193.66;;;23.08;58.70
68141;BME280;54941;52.220;104.306;2022-07-24T02:51:54;95198.28;;;22.60;60.20
68141;BME280;54941;52.220;104.306;2022-07-24T02:54:20;95196.91;;;23.05;59.22
68141;BME280;54941;52.220;104.306;2022-07-24T02:56:47;95191.75;;;22.14;62.74
68141;BME280;54941;52.220;104.306;2022-07-24T02:59:13;95200.44;;;21.75;64.52
68141;BME280;54941;52.220;104.306;2022-07-24T03:01:39;95192.38;;;22.28;62.42
68141;BME280;54941;52.220;104.306;2022-07-24T03:04:05;95189.88;;;23.26;58.70
68141;BME280;54941;52.220;104.306;2022-07-24T03:06:32;95198.47;;;23.61;58.12
68141;BME280;54941;52.220;104.306;2022-07-24T03:08:58;95189.47;;;23.71;57.88
68141;BME280;54941;52.220;104.306;2022-07-24T03:11:24;95186.69;;;23.67;57.67
68141;BME280;54941;52.220;104.306;2022-07-24T03:13:50;95190.97;;;23.43;58.98
68141;BME280;54941;52.220;104.306;2022-07-24T03:16:17;95193.44;;;23.22;60.95
68141;BME280;54941;52.220;104.306;2022-07-24T03:18:43;95196.53;;;22.04;63.70
68141;BME280;54941;52.220;104.306;2022-07-24T03:21:09;95191.63;;;21.41;64.83
68141;BME280;54941;52.220;104.306;2022-07-24T03:23:35;95202.19;;;22.79;61.21
68141;BME280;54941;52.220;104.306;2022-07-24T03:26:01;95192.53;;;24.32;56.37
68141;BME280;54941;52.220;104.306;2022-07-24T03:28:28;95198.47;;;26.17;50.97
68141;BME280;54941;52.220;104.306;2022-07-24T03:30:54;95199.88;;;25.54;52.12
68141;BME280;54941;52.220;104.306;2022-07-24T03:33:20;95206.19;;;22.86;58.77
68141;BME280;54941;52.220;104.306;2022-07-24T03:35:46;95199.19;;;23.15;58.86
68141;BME280;54941;52.220;104.306;2022-07-24T03:38:12;95199.91;;;22.04;61.62
68141;BME280;54941;52.220;104.306;2022-07-24T03:40:39;95199.94;;;22.13;62.33
68141;BME280;54941;52.220;104.306;2022-07-24T03:43:05;95201.94;;;22.07;62.08
68141;BME280;54941;52.220;104.306;2022-07-24T03:45:31;95192.19;;;24.12;56.41
68141;BME280;54941;52.220;104.306;2022-07-24T03:47:57;95193.53;;;25.79;51.18
68141;BME280;54941;52.220;104.306;2022-07-24T03:50:23;95194.16;;;24.45;54.34
68141;BME280;54941;52.220;104.306;2022-07-24T03:52:50;95199.59;;;23.43;58.07
68141;BME280;54941;52.220;104.306;2022-07-24T03:55:16;95206.63;;;23.05;60.40
68141;BME280;54941;52.220;104.306;2022-07-24T03:57:42;95194.03;;;23.45;59.33
68141;BME280;54941;52.220;104.306;2022-07-24T04:00:09;95195.09;;;25.35;54.43
68141;BME280;54941;52.220;104.306;2022-07-24T04:02:37;95189.00;;;26.16;50.70
68141;BME280;54941;52.220;104.306;2022-07-24T04:05:04;95184.81;;;27.50;47.72
68141;BME280;54941;52.220;104.306;2022-07-24T04:07:30;95185.59;;;26.03;49.94
68141;BME280;54941;52.220;104.306;2022-07-24T04:09:56;95188.00;;;23.82;55.31
68141;BME280;54941;52.220;104.306;2022-07-24T04:12:22;95183.78;;;22.71;58.76
68141;BME280;54941;52.220;104.306;2022-07-24T04:14:48;95172.63;;;22.22;60.82
68141;BME280;54941;52.220;104.306;2022-07-24T04:17:14;95176.25;;;21.87;62.70
68141;BME280;54941;52.220;104.306;2022-07-24T04:19:40;95170.09;;;22.00;62.56
68141;BME280;54941;52.220;104.306;2022-07-24T04:22:06;95171.41;;;24.19;56.30
68141;BME280;54941;52.220;104.306;2022-07-24T04:24:33;95181.34;;;25.87;51.01
68141;BME280;54941;52.220;104.306;2022-07-24T04:26:59;95176.94;;;26.55;47.93
68141;BME280;54941;52.220;104.306;2022-07-24T04:29:25;95177.22;;;24.04;54.14
68141;BME280;54941;52.220;104.306;2022-07-24T04:31:51;95165.88;;;23.45;57.18
68141;BME280;54941;52.220;104.306;2022-07-24T04:34:17;95170.72;;;24.02;55.32
68141;BME280;54941;52.220;104.306;2022-07-24T04:36:43;95166.50;;;24.92;51.71
68141;BME280;54941;52.220;104.306;2022-07-24T04:39:09;95159.88;;;24.03;53.96
68141;BME280;54941;52.220;104.306;2022-07-24T04:41:36;95158.09;;;23.57;56.48
68141;BME280;54941;52.220;104.306;2022-07-24T04:44:02;95158.88;;;22.77;56.88
68141;BME280;54941;52.220;104.306;2022-07-24T04:46:29;95156.84;;;23.55;55.71
68141;BME280;54941;52.220;104.306;2022-07-24T04:48:55;95156.78;;;23.72;55.72
68141;BME280;54941;52.220;104.306;2022-07-24T04:51:21;95156.44;;;24.32;53.17
68141;BME280;54941;52.220;104.306;2022-07-24T04:53:48;95159.00;;;23.61;54.56
68141;BME280;54941;52.220;104.306;2022-07-24T04:56:14;95158.19;;;23.69;56.14
68141;BME280;54941;52.220;104.306;2022-07-24T04:58:40;95167.72;;;23.53;56.37
68141;BME280;54941;52.220;104.306;2022-07-24T05:01:06;95160.91;;;23.82;55.42
68141;BME280;54941;52.220;104.306;2022-07-24T05:03:33;95155.63;;;24.61;54.67
68141;BME280;54941;52.220;104.306;2022-07-24T05:05:59;95163.91;;;26.22;50.72
68141;BME280;54941;52.220;104.306;2022-07-24T05:08:25;95158.19;;;26.08;50.29
68141;BME280;54941;52.220;104.306;2022-07-24T05:10:51;95159.97;;;25.10;49.62
68141;BME280;54941;52.220;104.306;2022-07-24T05:13:18;95153.88;;;25.43;50.09
68141;BME280;54941;52.220;104.306;2022-07-24T05:15:44;95151.63;;;24.76;50.52
68141;BME280;54941;52.220;104.306;2022-07-24T05:18:10;95144.19;;;23.57;52.32
68141;BME280;54941;52.220;104.306;2022-07-24T05:20:36;95144.25;;;23.98;52.09
68141;BME280;54941;52.220;104.306;2022-07-24T05:23:02;95141.81;;;24.76;50.66
68141;BME280;54941;52.220;104.306;2022-07-24T05:25:29;95144.56;;;25.00;49.43
68141;BME280;54941;52.220;104.306;2022-07-24T05:27:55;95144.09;;;25.43;50.20
68141;BME280;54941;52.220;104.306;2022-07-24T05:30:21;95137.28;;;25.42;50.69
68141;BME280;54941;52.220;104.306;2022-07-24T05:32:47;95147.75;;;24.94;50.64
68141;BME280;54941;52.220;104.306;2022-07-24T05:35:13;95150.66;;;24.18;51.36
68141;BME280;54941;52.220;104.306;2022-07-24T05:37:40;95140.47;;;23.87;51.15
68141;BME280;54941;52.220;104.306;2022-07-24T05:40:06;95135.41;;;24.86;50.20
68141;BME280;54941;52.220;104.306;2022-07-24T05:42:32;95133.19;;;25.33;47.55
68141;BME280;54941;52.220;104.306;2022-07-24T05:44:58;95132.31;;;25.41;48.52
68141;BME280;54941;52.220;104.306;2022-07-24T05:47:24;95138.09;;;25.67;48.84
68141;BME280;54941;52.220;104.306;2022-07-24T05:49:51;95127.69;;;26.10;47.38
68141;BME280;54941;52.220;104.306;2022-07-24T05:52:17;95134.75;;;25.94;48.01
68141;BME280;54941;52.220;104.306;2022-07-24T05:54:43;95128.69;;;25.33;48.82
68141;BME280;54941;52.220;104.306;2022-07-24T05:57:09;95134.34;;;24.45;50.38
68141;BME280;54941;52.220;104.306;2022-07-24T05:59:35;95128.25;;;24.53;50.34
68141;BME280;54941;52.220;104.306;2022-07-24T06:02:01;95135.78;;;23.63;53.47
68141;BME280;54941;52.220;104.306;2022-07-24T06:04:27;95132.22;;;23.89;55.03
68141;BME280;54941;52.220;104.306;2022-07-24T06:06:54;95132.66;;;23.70;55.80
68141;BME280;54941;52.220;104.306;2022-07-24T06:09:20;95138.19;;;23.77;56.34
68141;BME280;54941;52.220;104.306;2022-07-24T06:11:46;95129.19;;;23.49;56.89
68141;BME280;54941;52.220;104.306;2022-07-24T06:14:12;95133.97;;;23.09;57.35
68141;BME280;54941;52.220;104.306;2022-07-24T06:16:38;95129.25;;;23.69;56.57
68141;BME280;54941;52.220;104.306;2022-07-24T06:19:04;95126.06;;;24.35;55.07
68141;BME280;54941;52.220;104.306;2022-07-24T06:21:33;95123.88;;;24.57;53.45
68141;BME280;54941;52.220;104.306;2022-07-24T06:23:59;95120.09;;;24.46;53.06
68141;BME280;54941;52.220;104.306;2022-07-24T06:26:26;95128.63;;;24.43;52.98
68141;BME280;54941;52.220;104.306;2022-07-24T06:28:52;95129.31;;;24.32;52.49
68141;BME280;54941;52.220;104.306;2022-07-24T06:31:18;95122.75;;;23.96;53.37
68141;BME280;54941;52.220;104.306;2022-07-24T06:33:44;95121.94;;;23.75;53.87
68141;BME280;54941;52.220;104.306;2022-07-24T06:36:10;95121.16;;;23.74;53.86
68141;BME280;54941;52.220;104.306;2022-07-24T06:38:36;95123.81;;;23.95;54.96
68141;BME280;54941;52.220;104.306;2022-07-24T06:41:03;95132.28;;;23.80;55.15
68141;BME280;54941;52.220;104.306;2022-07-24T06:43:29;95125.66;;;23.74;54.01
68141;BME280;54941;52.220;104.306;2022-07-24T06:45:55;95129.06;;;24.45;51.52
68141;BME280;54941;52.220;104.306;2022-07-24T06:48:21;95121.59;;;24.68;52.58
68141;BME280;54941;52.220;104.306;2022-07-24T06:50:47;95116.81;;;25.27;52.24
68141;BME280;54941;52.220;104.306;2022-07-24T06:53:14;95126.13;;;25.00;50.94
68141;BME280;54941;52.220;104.306;2022-07-24T06:55:40;95125.69;;;25.10;50.62
68141;BME280;54941;52.220;104.306;2022-07-24T06:58:06;95131.78;;;24.57;50.70
68141;BME280;54941;52.220;104.306;2022-07-24T07:00:32;95127.34;;;24.29;51.82
68141;BME280;54941;52.220;104.306;2022-07-24T07:02:58;95129.44;;;24.56;51.80
68141;BME280;54941;52.220;104.306;2022-07-24T07:05:24;95131.94;;;24.11;53.09
68141;BME280;54941;52.220;104.306;2022-07-24T07:07:50;95115.69;;;24.09;53.92
68141;BME280;54941;52.220;104.306;2022-07-24T07:10:16;95123.91;;;24.07;53.88
68141;BME280;54941;52.220;104.306;2022-07-24T07:12:42;95127.63;;;23.39;55.02
68141;BME280;54941;52.220;104.306;2022-07-24T07:15:09;95130.34;;;23.68;54.84
68141;BME280;54941;52.220;104.306;2022-07-24T07:17:40;95118.19;;;23.47;55.40
68141;BME280;54941;52.220;104.306;2022-07-24T07:20:07;95121.81;;;23.42;55.79
68141;BME280;54941;52.220;104.306;2022-07-24T07:22:34;95114.19;;;22.94;57.22
68141;BME280;54941;52.220;104.306;2022-07-24T07:25:00;95121.72;;;23.13;56.27
68141;BME280;54941;52.220;104.306;2022-07-24T07:27:26;95121.25;;;23.11;56.48
68141;BME280;54941;52.220;104.306;2022-07-24T07:29:53;95128.59;;;23.43;55.82
68141;BME280;54941;52.220;104.306;2022-07-24T07:32:19;95120.97;;;23.50;54.42
68141;BME280;54941;52.220;104.306;2022-07-24T07:34:45;95125.69;;;23.27;54.61
68141;BME280;54941;52.220;104.306;2022-07-24T07:37:11;95127.50;;;22.98;55.85
68141;BME280;54941;52.220;104.306;2022-07-24T07:39:37;95121.38;;;23.23;55.95
68141;BME280;54941;52.220;104.306;2022-07-24T07:42:03;95123.50;;;23.38;55.71
68141;BME280;54941;52.220;104.306;2022-07-24T07:44:30;95114.75;;;23.55;56.84
68141;BME280;54941;52.220;104.306;2022-07-24T07:46:56;95115.53;;;23.85;55.94
68141;BME280;54941;52.220;104.306;2022-07-24T07:49:22;95113.81;;;23.89;55.74
68141;BME280;54941;52.220;104.306;2022-07-24T07:51:48;95115.16;;;23.65;56.49
68141;BME280;54941;52.220;104.306;2022-07-24T07:54:14;95115.50;;;23.64;56.79
68141;BME280;54941;52.220;104.306;2022-07-24T07:56:41;95105.00;;;23.55;56.66
68141;BME280;54941;52.220;104.306;2022-07-24T07:59:07;95105.47;;;23.19;57.00
68141;BME280;54941;52.220;104.306;2022-07-24T08:01:33;95094.53;;;23.09;57.73
68141;BME280;54941;52.220;104.306;2022-07-24T08:03:59;95096.97;;;23.14;57.28
68141;BME280;54941;52.220;104.306;2022-07-24T08:06:25;95093.13;;;23.11;58.06
68141;BME280;54941;52.220;104.306;2022-07-24T08:08:52;95096.22;;;23.05;57.41
68141;BME280;54941;52.220;104.306;2022-07-24T08:11:18;95090.66;;;23.06;57.19
68141;BME280;54941;52.220;104.306;2022-07-24T08:13:44;95090.34;;;23.08;56.16
68141;BME280;54941;52.220;104.306;2022-07-24T08:16:10;95084.03;;;23.00;54.88
68141;BME280;54941;52.220;104.306;2022-07-24T08:18:36;95086.66;;;22.92;54.76
68141;BME280;54941;52.220;104.306;2022-07-24T08:21:03;95082.22;;;22.66;54.02
68141;BME280;54941;52.220;104.306;2022-07-24T08:23:29;95081.97;;;22.68;54.07
68141;BME280;54941;52.220;104.306;2022-07-24T08:25:55;95084.72;;;22.71;55.07
68141;BME280;54941;52.220;104.306;2022-07-24T08:28:22;95080.25;;;22.72;55.94
68141;BME280;54941;52.220;104.306;2022-07-24T08:30:49;95081.78;;;22.56;56.47
68141;BME280;54941;52.220;104.306;2022-07-24T08:33:15;95077.31;;;22.48;56.67
68141;BME280;54941;52.220;104.306;2022-07-24T08:35:41;95076.53;;;22.47;56.75
68141;BME280;54941;52.220;104.306;2022-07-24T08:38:08;95078.22;;;22.52;56.65
68141;BME280;54941;52.220;104.306;2022-07-24T08:40:37;95079.34;;;22.33;55.22
68141;BME280;54941;52.220;104.306;2022-07-24T08:43:05;95074.84;;;22.25;55.19
68141;BME280;54941;52.220;104.306;2022-07-24T08:45:38;95072.56;;;22.15;55.06
68141;BME280;54941;52.220;104.306;2022-07-24T08:48:07;95076.09;;;22.19;54.67
68141;BME280;54941;52.220;104.306;2022-07-24T08:50:36;95078.41;;;22.21;54.66
68141;BME280;54941;52.220;104.306;2022-07-24T08:53:04;95073.66;;;22.06;55.50
68141;BME280;54941;52.220;104.306;2022-07-24T08:55:31;95072.72;;;22.02;56.76
68141;BME280;54941;52.220;104.306;2022-07-24T08:58:01;95074.09;;;22.16;55.62
68141;BME280;54941;52.220;104.306;2022-07-24T09:00:29;95078.91;;;22.06;55.99
68141;BME280;54941;52.220;104.306;2022-07-24T09:02:56;95071.31;;;22.21;55.43
68141;BME280;54941;52.220;104.306;2022-07-24T09:05:22;95076.09;;;22.19;55.86
68141;BME280;54941;52.220;104.306;2022-07-24T09:07:48;95076.88;;;22.20;55.58
68141;BME280;54941;52.220;104.306;2022-07-24T09:10:17;95076.88;;;22.20;56.16
68141;BME280;54941;52.220;104.306;2022-07-24T09:12:45;95079.78;;;22.10;56.33
68141;BME280;54941;52.220;104.306;2022-07-24T09:17:56;95083.66;;;21.95;58.02
68141;BME280;54941;52.220;104.306;2022-07-24T09:20:25;95091.09;;;22.02;57.55
68141;BME280;54941;52.220;104.306;2022-07-24T09:22:51;95093.50;;;21.90;58.69
68141;BME280;54941;52.220;104.306;2022-07-24T09:25:20;95094.56;;;21.89;57.47
68141;BME280;54941;52.220;104.306;2022-07-24T09:30:22;95095.09;;;21.91;57.53
68141;BME280;54941;52.220;104.306;2022-07-24T09:33:06;95095.19;;;21.85;57.14
68141;BME280;54941;52.220;104.306;2022-07-24T09:35:47;95096.78;;;21.95;56.94
68141;BME280;54941;52.220;104.306;2022-07-24T09:38:15;95101.28;;;21.95;57.34
68141;BME280;54941;52.220;104.306;2022-07-24T09:40:44;95099.28;;;22.09;57.32
68141;BME280;54941;52.220;104.306;2022-07-24T09:43:25;95093.72;;;22.19;56.91
68141;BME280;54941;52.220;104.306;2022-07-24T09:46:10;95094.34;;;22.24;56.66
68141;BME280;54941;52.220;104.306;2022-07-24T09:48:51;95092.47;;;22.25;56.44
68141;BME280;54941;52.220;104.306;2022-07-24T09:51:18;95098.34;;;22.22;57.24
68141;BME280;54941;52.220;104.306;2022-07-24T09:53:45;95087.38;;;22.20;56.62
68141;BME280;54941;52.220;104.306;2022-07-24T09:56:14;95090.16;;;22.23;56.81
68141;BME280;54941;52.220;104.306;2022-07-24T09:58:48;95089.09;;;22.24;56.87
68141;BME280;54941;52.220;104.306;2022-07-24T10:01:18;95082.59;;;22.30;57.18
68141;BME280;54941;52.220;104.306;2022-07-24T10:03:49;95079.19;;;22.21;57.35
68141;BME280;54941;52.220;104.306;2022-07-24T10:06:20;95078.13;;;22.05;58.40
68141;BME280;54941;52.220;104.306;2022-07-24T10:08:48;95078.44;;;22.12;58.29
68141;BME280;54941;52.220;104.306;2022-07-24T10:11:16;95083.53;;;22.09;58.80
68141;BME280;54941;52.220;104.306;2022-07-24T10:13:43;95074.25;;;22.11;58.84
68141;BME280;54941;52.220;104.306;2022-07-24T10:21:07;95073.16;;;21.95;59.99
68141;BME280;54941;52.220;104.306;2022-07-24T10:23:58;95081.91;;;21.73;60.87
68141;BME280;54941;52.220;104.306;2022-07-24T10:26:36;95083.00;;;21.81;60.78
68141;BME280;54941;52.220;104.306;2022-07-24T10:29:12;95085.78;;;21.84;62.00
68141;BME280;54941;52.220;104.306;2022-07-24T10:31:49;95088.25;;;21.81;61.94
68141;BME280;54941;52.220;104.306;2022-07-24T10:34:39;95101.38;;;21.90;61.55
68141;BME280;54941;52.220;104.306;2022-07-24T10:42:32;95102.84;;;21.56;62.20
68141;BME280;54941;52.220;104.306;2022-07-24T10:45:18;95094.94;;;21.48;62.32
68141;BME280;54941;52.220;104.306;2022-07-24T10:47:45;95096.50;;;21.49;63.87
68141;BME280;54941;52.220;104.306;2022-07-24T10:50:12;95104.06;;;21.50;63.54
68141;BME280;54941;52.220;104.306;2022-07-24T10:52:38;95103.41;;;21.36;68.23
68141;BME280;54941;52.220;104.306;2022-07-24T10:58:03;95123.75;;;20.77;73.67
68141;BME280;54941;52.220;104.306;2022-07-24T11:03:03;95107.41;;;20.50;79.14
68141;BME280;54941;52.220;104.306;2022-07-24T11:05:34;95108.09;;;20.42;78.75
68141;BME280;54941;52.220;104.306;2022-07-24T11:26:48;95100.69;;;20.35;78.42
68141;BME280;54941;52.220;104.306;2022-07-24T11:31:43;95097.03;;;20.45;79.65
68141;BME280;54941;52.220;104.306;2022-07-24T11:34:10;95105.38;;;20.47;79.54
68141;BME280;54941;52.220;104.306;2022-07-24T11:36:39;95099.56;;;20.50;79.93
68141;BME280;54941;52.220;104.306;2022-07-24T11:39:06;95099.56;;;20.50;82.43
68141;BME280;54941;52.220;104.306;2022-07-24T11:41:53;95102.44;;;20.48;81.98
68141;BME280;54941;52.220;104.306;2022-07-24T11:44:33;95104.59;;;20.46;81.26
68141;BME280;54941;52.220;104.306;2022-07-24T11:47:06;95103.72;;;20.51;80.89
68141;BME280;54941;52.220;104.306;2022-07-24T11:50:00;95107.88;;;20.52;81.24
68141;BME280;54941;52.220;104.306;2022-07-24T11:52:37;95114.59;;;20.44;81.11
68141;BME280;54941;52.220;104.306;2022-07-24T11:55:13;95111.31;;;20.38;80.69
68141;BME280;54941;52.220;104.306;2022-07-24T11:57:41;95110.97;;;20.31;80.84
68141;BME280;54941;52.220;104.306;2022-07-24T12:00:11;95112.09;;;20.25;82.06
68141;BME280;54941;52.220;104.306;2022-07-24T12:02:43;95114.59;;;20.08;83.32
68141;BME280;54941;52.220;104.306;2022-07-24T12:05:09;95113.81;;;20.08;84.41
68141;BME280;54941;52.220;104.306;2022-07-24T12:07:35;95124.91;;;19.91;84.46
68141;BME280;54941;52.220;104.306;2022-07-24T12:10:02;95117.25;;;19.81;85.66
68141;BME280;54941;52.220;104.306;2022-07-24T12:12:34;95111.97;;;19.72;86.33
68141;BME280;54941;52.220;104.306;2022-07-24T12:15:07;95117.00;;;19.69;86.97
68141;BME280;54941;52.220;104.306;2022-07-24T12:17:36;95112.16;;;19.62;86.81
68141;BME280;54941;52.220;104.306;2022-07-24T12:20:30;95109.72;;;19.52;87.84
68141;BME280;54941;52.220;104.306;2022-07-24T12:22:59;95109.84;;;19.47;87.71
68141;BME280;54941;52.220;104.306;2022-07-24T12:25:26;95104.50;;;19.25;87.88
68141;BME280;54941;52.220;104.306;2022-07-24T12:28:21;95101.00;;;19.16;88.04
68141;BME280;54941;52.220;104.306;2022-07-24T12:30:49;95107.19;;;19.06;88.60
68141;BME280;54941;52.220;104.306;2022-07-24T12:35:59;95102.31;;;18.86;88.56
68141;BME280;54941;52.220;104.306;2022-07-24T12:43:56;95105.75;;;18.49;92.07
68141;BME280;54941;52.220;104.306;2022-07-24T12:46:40;95103.69;;;18.32;92.16
68141;BME280;54941;52.220;104.306;2022-07-24T12:49:16;95114.56;;;18.21;92.97
68141;BME280;54941;52.220;104.306;2022-07-24T12:51:59;95110.59;;;18.05;93.85
68141;BME280;54941;52.220;104.306;2022-07-24T12:54:26;95113.72;;;18.07;93.85
68141;BME280;54941;52.220;104.306;2022-07-24T12:56:54;95109.47;;;17.92;93.82
68141;BME280;54941;52.220;104.306;2022-07-24T12:59:41;95108.13;;;17.94;93.37
68141;BME280;54941;52.220;104.306;2022-07-24T13:02:10;95104.38;;;17.82;93.41
68141;BME280;54941;52.220;104.306;2022-07-24T13:04:52;95118.34;;;17.72;94.61
68141;BME280;54941;52.220;104.306;2022-07-24T13:07:20;95110.19;;;18.16;91.08
68141;BME280;54941;52.220;104.306;2022-07-24T13:09:47;95112.97;;;18.38;88.74
68141;BME280;54941;52.220;104.306;2022-07-24T13:12:14;95121.16;;;18.51;86.99
68141;BME280;54941;52.220;104.306;2022-07-24T13:14:42;95118.47;;;18.56;85.22
68141;BME280;54941;52.220;104.306;2022-07-24T13:17:13;95132.69;;;18.63;83.74
68141;BME280;54941;52.220;104.306;2022-07-24T13:19:42;95127.69;;;18.67;82.98
68141;BME280;54941;52.220;104.306;2022-07-24T13:22:09;95125.19;;;18.62;83.29
68141;BME280;54941;52.220;104.306;2022-07-24T13:24:35;95118.69;;;18.59;82.08
68141;BME280;54941;52.220;104.306;2022-07-24T13:27:02;95121.50;;;18.63;80.09
68141;BME280;54941;52.220;104.306;2022-07-24T13:29:28;95125.31;;;18.52;81.24
68141;BME280;54941;52.220;104.306;2022-07-24T13:31:54;95115.22;;;18.45;80.89
68141;BME280;54941;52.220;104.306;2022-07-24T13:34:20;95123.47;;;18.15;85.05